Time;durP1;ratioP1;P1;durP2;ratioP2;P2;SDS_P1;SDS_P2;PMS_P1;PMS_P2;Temp;Humidity;BMP_temperature;BMP_pressure;BME280_temperature;BME280_humidity;BME280_pressure;Samples;Min_cycle;Max_cycle;Signal;HPM_P1;HPM_P2
2021/05/02 00:00:39;;;;;;;21.40;6.68;;;;;;;19.22;84.79;96542.06;4927562;29;20522;-69
2021/05/02 00:03:05;;;;;;;17.35;6.70;;;;;;;19.12;85.64;96540.34;4929625;29;20130;-70
2021/05/02 00:05:33;;;;;;;20.17;7.47;;;;;;;18.59;86.17;96465.03;4929255;29;20031;-70
2021/05/02 00:08:00;;;;;;;12.77;6.85;;;;;;;18.91;87.11;96538.03;4929818;29;20104;-71
2021/05/02 00:10:28;;;;;;;18.10;6.80;;;;;;;18.97;86.67;96527.84;4927458;29;20107;-70
2021/05/02 00:12:55;;;;;;;23.60;7.30;;;;;;;18.82;87.40;96535.03;4927733;29;20032;-71
2021/05/02 00:15:23;;;;;;;19.55;7.30;;;;;;;18.73;88.55;96532.03;4929389;29;20031;-70
2021/05/02 00:17:50;;;;;;;16.92;7.15;;;;;;;18.78;88.28;96523.09;4943864;29;20471;-70
2021/05/02 00:20:18;;;;;;;14.20;6.75;;;;;;;18.55;89.15;96517.63;4929122;29;20047;-70
2021/05/02 00:22:50;;;;;;;20.52;7.25;;;;;;;18.30;89.32;96496.94;4929720;29;20123;-70
2021/05/02 00:25:19;;;;;;;18.40;7.63;;;;;;;18.56;90.27;96516.38;4927174;29;20457;-70
2021/05/02 00:27:45;;;;;;;19.38;7.47;;;;;;;18.74;89.06;96511.19;4929551;29;20095;-69
2021/05/02 00:30:12;;;;;;;16.92;7.90;;;;;;;18.74;88.66;96516.78;4927187;29;20091;-69
2021/05/02 00:32:39;;;;;;;22.55;7.65;;;;;;;18.68;89.02;96517.75;4929051;29;20070;-69
2021/05/02 00:35:05;;;;;;;21.58;8.02;;;;;;;18.64;89.01;96517.00;4928550;29;20130;-69
2021/05/02 00:37:31;;;;;;;16.33;7.97;;;;;;;17.93;89.41;96414.03;4928618;29;20483;-68
2021/05/02 00:39:57;;;;;;;14.52;7.18;;;;;;;18.62;89.36;96509.03;4927696;29;20036;-69
2021/05/02 00:42:26;;;;;;;15.45;8.23;;;;;;;18.60;89.67;96500.28;4928415;29;20043;-69
2021/05/02 00:45:05;;;;;;;17.15;8.63;;;;;;;18.32;89.60;96494.50;4927097;29;20027;-70
2021/05/02 00:47:40;;;;;;;15.50;8.15;;;;;;;18.49;90.78;96527.78;4927973;29;20693;-69
2021/05/02 00:50:17;;;;;;;18.90;8.68;;;;;;;18.54;90.21;96524.44;4926697;29;20486;-69
2021/05/02 00:52:48;;;;;;;14.85;7.72;;;;;;;18.54;90.44;96521.63;4942964;29;20071;-68
2021/05/02 00:55:21;;;;;;;17.30;8.43;;;;;;;18.50;90.93;96512.53;4928566;29;20502;-68
2021/05/02 00:58:03;;;;;;;13.77;7.90;;;;;;;18.50;91.02;96511.72;4928917;29;20040;-68
2021/05/02 01:00:35;;;;;;;17.88;8.15;;;;;;;18.38;91.65;96510.41;4928213;29;20483;-69
2021/05/02 01:03:05;;;;;;;14.38;7.32;;;;;;;18.35;91.54;96511.25;4928244;29;20107;-68
2021/05/02 01:05:32;;;;;;;15.32;7.53;;;;;;;18.32;92.08;96506.47;4926586;29;20051;-68
2021/05/02 01:08:00;;;;;;;18.60;7.68;;;;;;;18.17;93.08;96505.22;4928605;29;20121;-68
2021/05/02 01:10:27;;;;;;;15.95;7.88;;;;;;;17.55;93.89;96430.44;4928413;29;20028;-68
2021/05/02 01:12:55;;;;;;;15.35;7.57;;;;;;;18.03;93.98;96494.31;4927109;29;20066;-68
2021/05/02 01:15:24;;;;;;;19.55;7.22;;;;;;;18.12;93.50;96488.91;4942491;29;20535;-68
2021/05/02 01:17:55;;;;;;;17.60;7.97;;;;;;;17.86;92.23;96422.63;4927931;29;20046;-68
2021/05/02 01:20:21;;;;;;;14.18;6.93;;;;;;;18.34;91.79;96476.00;4927762;29;20127;-69
2021/05/02 01:22:51;;;;;;;17.35;8.23;;;;;;;18.37;91.57;96482.75;4926437;29;20043;-68
2021/05/02 01:25:21;;;;;;;18.55;7.97;;;;;;;17.77;91.30;96369.16;4926100;29;20027;-68
2021/05/02 01:27:52;;;;;;;22.75;8.10;;;;;;;16.42;90.77;96152.06;4927088;29;20114;-68
2021/05/02 01:30:18;;;;;;;19.23;7.57;;;;;;;17.82;90.58;96354.63;4927680;29;20039;-69
2021/05/02 01:32:43;;;;;;;19.80;7.97;;;;;;;18.34;89.97;96442.34;4926493;29;20031;-68
2021/05/02 01:35:09;;;;;;;15.45;6.95;;;;;;;18.34;89.15;96411.50;4927274;29;20036;-70
2021/05/02 01:37:36;;;;;;;20.30;7.93;;;;;;;17.98;89.53;96357.47;4942229;29;20036;-70
2021/05/02 01:40:03;;;;;;;19.42;7.82;;;;;;;18.28;89.32;96404.84;4927850;29;20040;-70
2021/05/02 01:42:29;;;;;;;22.25;7.72;;;;;;;18.53;89.62;96455.56;4925854;29;20051;-70
2021/05/02 01:44:54;;;;;;;16.63;7.47;;;;;;;18.57;89.64;96470.31;4928016;29;20083;-70
2021/05/02 01:47:21;;;;;;;16.88;8.68;;;;;;;17.41;90.58;96307.50;4927191;29;20047;-70
2021/05/02 01:49:48;;;;;;;18.33;9.50;;;;;;;18.43;91.70;96469.84;4942037;29;20032;-71
2021/05/02 01:52:16;;;;;;;16.88;8.63;;;;;;;18.29;91.70;96456.88;4926898;29;20134;-69
2021/05/02 01:54:42;;;;;;;20.10;10.90;;;;;;;18.44;92.03;96458.19;4927788;29;20153;-68
2021/05/02 01:57:09;;;;;;;17.23;9.73;;;;;;;18.03;91.31;96393.41;4926946;29;20060;-68
2021/05/02 01:59:36;;;;;;;16.42;9.20;;;;;;;18.34;91.64;96407.91;4927622;29;20042;-69
2021/05/02 02:02:02;;;;;;;19.02;9.55;;;;;;;18.41;92.03;96436.63;4925568;29;20102;-70
2021/05/02 02:04:29;;;;;;;23.90;9.98;;;;;;;18.43;92.04;96439.75;4927534;29;20110;-69
2021/05/02 02:06:57;;;;;;;22.17;9.43;;;;;;;18.49;91.28;96438.03;4925204;29;20515;-70
2021/05/02 02:09:23;;;;;;;19.92;10.55;;;;;;;18.46;90.38;96419.28;4926104;29;20507;-69
2021/05/02 02:11:52;;;;;;;20.42;10.38;;;;;;;18.51;91.41;96429.94;4941166;29;20035;-70
2021/05/02 02:14:18;;;;;;;21.23;8.63;;;;;;;18.38;91.71;96437.50;4927428;29;20048;-70
2021/05/02 02:16:45;;;;;;;22.30;9.50;;;;;;;17.91;92.75;96386.44;4926002;29;20031;-70
2021/05/02 02:19:10;;;;;;;19.85;10.07;;;;;;;18.22;93.11;96434.63;4927585;29;20513;-69
2021/05/02 02:21:36;;;;;;;19.88;9.98;;;;;;;17.91;93.26;96433.28;4926727;29;20035;-69
2021/05/02 02:24:03;;;;;;;22.23;10.30;;;;;;;16.01;93.45;96106.97;4927434;29;20051;-70
2021/05/02 02:26:55;;;;;;;16.40;8.88;;;;;;;17.71;95.14;96398.91;4926614;28;20094;-69
2021/05/02 02:29:22;;;;;;;20.45;9.32;;;;;;;17.75;94.41;96380.03;4923134;29;20530;-70
2021/05/02 02:31:50;;;;;;;18.92;10.20;;;;;;;17.27;96.15;96351.78;4926460;29;20043;-69
2021/05/02 02:34:16;;;;;;;22.38;10.05;;;;;;;17.17;96.34;96330.41;4941449;29;20063;-69
2021/05/02 02:36:43;;;;;;;19.95;9.55;;;;;;;17.25;95.48;96321.44;4926888;29;20043;-69
2021/05/02 02:39:09;;;;;;;22.20;10.30;;;;;;;17.50;96.63;96376.94;4927715;29;20032;-69
2021/05/02 02:41:42;;;;;;;23.92;11.05;;;;;;;17.72;96.49;96412.47;4926539;29;20539;-69
2021/05/02 02:44:10;;;;;;;17.13;9.75;;;;;;;17.75;96.93;96422.06;4941300;29;20046;-70
2021/05/02 02:46:46;;;;;;;19.83;9.55;;;;;;;17.63;95.97;96391.88;4926378;29;20071;-70
2021/05/02 02:49:13;;;;;;;20.35;9.27;;;;;;;17.28;95.16;96344.97;4926764;29;20103;-70
2021/05/02 02:51:41;;;;;;;20.50;9.75;;;;;;;17.73;95.84;96419.69;4924573;29;20044;-70
2021/05/02 02:54:09;;;;;;;17.77;9.80;;;;;;;17.61;97.44;96439.91;4926329;29;20063;-69
2021/05/02 02:56:40;;;;;;;18.67;9.68;;;;;;;17.66;97.60;96438.63;4926773;29;20027;-70
2021/05/02 02:59:18;;;;;;;18.40;9.48;;;;;;;17.67;97.44;96449.41;4927036;29;20043;-70
2021/05/02 03:01:46;;;;;;;20.65;11.40;;;;;;;17.75;97.46;96438.84;4924487;29;20042;-70
2021/05/02 03:04:16;;;;;;;22.05;10.82;;;;;;;17.80;97.29;96441.13;4924836;29;20427;-69
2021/05/02 03:06:42;;;;;;;23.48;10.80;;;;;;;17.40;96.96;96389.13;4926072;29;20533;-69
2021/05/02 03:09:08;;;;;;;21.80;9.65;;;;;;;17.60;96.10;96409.53;4926955;29;20459;-70
2021/05/02 03:11:34;;;;;;;17.92;10.38;;;;;;;18.05;95.21;96458.22;4925830;29;20027;-70
2021/05/02 03:14:00;;;;;;;24.83;9.80;;;;;;;18.08;94.97;96451.75;4926857;29;20059;-70
2021/05/02 03:16:29;;;;;;;19.58;8.70;;;;;;;17.64;94.23;96377.44;4926547;29;20055;-69
2021/05/02 03:19:32;;;;;;;20.73;10.48;;;;;;;18.22;93.41;96454.25;4924937;29;20036;-69
2021/05/02 03:22:03;;;;;;;23.48;10.75;;;;;;;18.18;93.74;96461.94;4904051;29;20044;-71
2021/05/02 03:24:33;;;;;;;24.92;11.27;;;;;;;18.18;94.07;96459.13;4923045;29;20039;-70
2021/05/02 03:27:17;;;;;;;20.90;10.90;;;;;;;18.27;93.32;96476.16;4942112;28;20036;-70
2021/05/02 03:29:47;;;;;;;25.50;12.95;;;;;;;18.29;92.71;96479.31;4928791;29;20039;-70
2021/05/02 03:32:15;;;;;;;25.17;13.02;;;;;;;18.15;90.97;96439.59;4927684;28;20059;-69
2021/05/02 03:34:42;;;;;;;23.88;11.98;;;;;;;18.53;90.59;96458.34;4944293;29;20491;-70
2021/05/02 03:37:18;;;;;;;22.67;11.70;;;;;;;18.11;90.83;96422.84;4944198;29;20242;-69
2021/05/02 03:39:47;;;;;;;21.10;9.48;;;;;;;18.59;90.61;96459.41;4930170;29;20040;-69
2021/05/02 03:42:14;;;;;;;15.70;9.15;;;;;;;18.35;92.21;96443.13;4929446;29;20042;-71
2021/05/02 03:44:39;;;;;;;20.77;10.40;;;;;;;18.03;95.19;96457.88;4920613;28;20114;-69
2021/05/02 03:47:05;;;;;;;19.45;10.45;;;;;;;16.80;98.75;96327.94;4930097;29;20032;-69
2021/05/02 03:49:31;;;;;;;21.23;11.32;;;;;;;17.41;100.00;96460.69;4929956;29;20039;-69
2021/05/02 03:51:56;;;;;;;24.13;12.02;;;;;;;16.84;99.03;96402.19;4929832;29;20037;-69
2021/05/02 03:54:22;;;;;;;28.38;12.40;;;;;;;17.40;99.11;96431.13;4929669;29;20051;-70
2021/05/02 03:56:47;;;;;;;21.90;11.68;;;;;;;16.97;98.53;96355.59;4929203;29;20123;-69
2021/05/02 03:59:15;;;;;;;23.17;12.00;;;;;;;17.79;98.07;96445.16;4929941;29;20047;-68
2021/05/02 04:02:01;;;;;;;18.83;11.90;;;;;;;17.91;97.44;96453.69;4929500;29;20032;-68
2021/05/02 04:04:32;;;;;;;23.05;12.27;;;;;;;17.96;96.82;96429.97;4928069;29;20066;-68
2021/05/02 04:07:00;;;;;;;22.85;11.40;;;;;;;17.74;96.17;96431.66;4943381;29;20595;-69
2021/05/02 04:09:26;;;;;;;21.80;11.48;;;;;;;17.87;97.56;96474.63;4944075;29;20414;-69
2021/05/02 04:11:52;;;;;;;20.40;11.48;;;;;;;18.02;96.71;96475.88;4943586;29;20055;-68
2021/05/02 04:14:18;;;;;;;23.05;11.18;;;;;;;18.05;96.48;96475.06;4930190;29;20052;-69
2021/05/02 04:16:53;;;;;;;26.25;11.63;;;;;;;18.21;94.99;96491.91;4928708;29;20406;-69
2021/05/02 04:19:18;;;;;;;25.45;11.65;;;;;;;17.99;94.56;96431.91;4929813;29;20048;-68
2021/05/02 04:21:43;;;;;;;24.83;12.65;;;;;;;17.46;93.88;96323.03;4929171;29;20036;-69
2021/05/02 04:24:09;;;;;;;24.83;13.65;;;;;;;18.34;94.77;96473.19;4929388;29;20086;-68
2021/05/02 04:26:35;;;;;;;30.83;15.15;;;;;;;17.83;94.13;96381.44;4927509;29;20038;-69
2021/05/02 04:29:01;;;;;;;25.38;14.77;;;;;;;18.69;91.67;96464.00;4929317;29;20506;-69
2021/05/02 04:31:26;;;;;;;26.42;14.10;;;;;;;18.77;90.94;96473.81;4928552;29;20078;-69
2021/05/02 04:33:52;;;;;;;25.08;15.55;;;;;;;16.51;90.11;96076.84;4926852;29;20418;-69
2021/05/02 04:36:17;;;;;;;23.50;15.57;;;;;;;18.89;88.41;96433.81;4927044;29;20518;-70
2021/05/02 04:38:42;;;;;;;34.88;19.13;;;;;;;19.34;87.37;96471.19;4928381;29;20592;-70
2021/05/02 04:41:08;;;;;;;31.65;16.60;;;;;;;19.49;86.36;96489.22;4942960;29;20483;-70
2021/05/02 04:43:34;;;;;;;28.17;15.93;;;;;;;19.70;85.14;96484.25;4929263;29;20467;-70
2021/05/02 04:46:00;;;;;;;28.65;15.30;;;;;;;19.96;84.44;96463.44;4942847;29;20044;-70
2021/05/02 04:48:25;;;;;;;23.63;13.70;;;;;;;19.71;81.39;96381.88;4943281;29;20586;-70
2021/05/02 04:50:51;;;;;;;22.85;12.27;;;;;;;20.54;80.92;96487.44;4928192;29;20526;-70
2021/05/02 04:53:18;;;;;;;19.90;10.93;;;;;;;20.66;79.21;96476.19;4928354;28;20130;-71
2021/05/02 04:55:44;;;;;;;20.75;10.20;;;;;;;20.90;78.71;96456.91;4942662;29;20082;-71
2021/05/02 04:58:10;;;;;;;21.67;9.20;;;;;;;21.33;77.19;96465.56;4928847;29;20047;-70
2021/05/02 05:00:36;;;;;;;25.40;9.68;;;;;;;21.58;74.62;96490.03;4928275;29;20032;-69
2021/05/02 05:03:02;;;;;;;18.60;8.07;;;;;;;21.82;73.29;96480.75;4928473;29;20095;-69
2021/05/02 05:05:28;;;;;;;22.55;7.72;;;;;;;20.49;71.56;96252.44;4928124;29;20036;-69
2021/05/02 05:07:53;;;;;;;22.98;9.27;;;;;;;21.75;72.04;96433.06;4928620;29;20040;-69
2021/05/02 05:10:19;;;;;;;19.02;11.02;;;;;;;20.89;77.35;96421.56;4927834;29;20038;-69
2021/05/02 05:12:44;;;;;;;26.25;11.35;;;;;;;20.42;80.89;96403.81;4928386;29;20134;-68
2021/05/02 05:15:10;;;;;;;17.85;11.38;;;;;;;20.87;81.15;96453.00;4942137;29;20036;-69
2021/05/02 05:17:36;;;;;;;20.83;10.90;;;;;;;18.58;80.19;96079.16;4928155;29;20048;-68
2021/05/02 05:20:06;;;;;;;20.45;10.73;;;;;;;20.71;79.17;96419.31;4928029;29;20032;-69
2021/05/02 05:22:32;;;;;;;23.05;10.60;;;;;;;21.06;78.35;96456.81;4942350;29;20051;-69
2021/05/02 05:24:58;;;;;;;26.88;10.75;;;;;;;20.10;78.21;96297.13;4928153;29;20036;-69
2021/05/02 05:27:24;;;;;;;24.02;10.13;;;;;;;20.89;78.14;96418.75;4927640;29;20468;-69
2021/05/02 05:29:50;;;;;;;20.05;9.88;;;;;;;21.20;78.03;96470.44;4928247;29;20040;-70
2021/05/02 05:32:15;;;;;;;18.83;10.50;;;;;;;21.21;77.50;96460.75;4925976;29;20101;-70
2021/05/02 05:34:41;;;;;;;20.38;9.35;;;;;;;21.12;77.28;96457.81;4927785;29;20042;-69
2021/05/02 05:37:06;;;;;;;25.23;9.95;;;;;;;21.14;76.96;96451.72;4925637;29;20513;-69
2021/05/02 05:39:32;;;;;;;20.02;9.20;;;;;;;21.29;77.24;96450.81;4942074;29;20474;-69
2021/05/02 05:41:57;;;;;;;16.40;10.18;;;;;;;21.16;77.06;96418.25;4927085;29;20112;-68
2021/05/02 05:44:23;;;;;;;19.50;9.48;;;;;;;21.06;77.18;96396.88;4925764;29;20039;-69
2021/05/02 05:46:48;;;;;;;17.05;9.55;;;;;;;21.56;76.17;96453.09;4927200;29;20036;-69
2021/05/02 05:49:16;;;;;;;20.25;9.77;;;;;;;21.27;77.40;96430.75;4927921;29;20118;-69
2021/05/02 05:51:41;;;;;;;20.55;9.43;;;;;;;20.84;79.27;96358.16;4927196;29;20032;-69
2021/05/02 05:54:06;;;;;;;24.77;10.15;;;;;;;21.67;78.18;96430.94;4925824;29;20058;-69
2021/05/02 05:56:32;;;;;;;20.92;10.02;;;;;;;21.51;77.04;96372.72;4925128;29;20031;-70
2021/05/02 05:58:57;;;;;;;18.17;9.27;;;;;;;21.97;75.19;96439.50;4932111;28;20494;-68
2021/05/02 06:01:23;;;;;;;18.58;8.80;;;;;;;22.04;75.23;96429.97;4926837;29;20496;-69
2021/05/02 06:03:48;;;;;;;25.77;9.00;;;;;;;21.90;74.17;96436.94;4927740;29;20031;-68
2021/05/02 06:06:14;;;;;;;19.73;8.95;;;;;;;21.85;73.36;96347.28;4927154;29;20048;-70
2021/05/02 06:08:39;;;;;;;24.33;8.73;;;;;;;22.54;72.22;96434.53;4927060;29;20038;-70
2021/05/02 06:11:05;;;;;;;18.02;8.65;;;;;;;22.55;71.36;96400.19;4941191;29;20036;-70
2021/05/02 06:13:30;;;;;;;17.70;8.48;;;;;;;22.81;70.45;96403.59;4927445;29;20075;-70
2021/05/02 06:15:55;;;;;;;17.88;8.65;;;;;;;23.01;69.62;96389.81;4912619;28;20055;-69
2021/05/02 06:18:21;;;;;;;17.90;8.57;;;;;;;22.89;67.25;96291.88;4926942;29;20037;-70
2021/05/02 06:20:46;;;;;;;16.42;8.52;;;;;;;22.75;65.62;96208.53;4941094;29;20190;-68
2021/05/02 06:23:12;;;;;;;31.40;9.65;;;;;;;23.37;67.29;96381.41;4941745;29;20130;-69
2021/05/02 06:25:37;;;;;;;20.80;8.10;;;;;;;23.21;65.41;96392.97;4926932;29;20035;-70
2021/05/02 06:28:03;;;;;;;17.42;8.55;;;;;;;23.16;66.01;96368.16;4941140;29;20027;-70
2021/05/02 06:30:28;;;;;;;22.90;8.35;;;;;;;22.96;68.06;96394.03;4926219;29;20040;-70
2021/05/02 06:32:54;;;;;;;24.25;9.00;;;;;;;23.38;66.85;96386.59;4925150;29;20095;-70
2021/05/02 06:35:19;;;;;;;21.38;8.25;;;;;;;23.46;63.94;96305.06;4926052;29;20103;-70
2021/05/02 06:37:45;;;;;;;25.27;8.43;;;;;;;24.27;63.46;96381.31;4926801;29;20099;-69
2021/05/02 06:40:13;;;;;;;19.70;8.32;;;;;;;24.60;61.71;96351.00;4926564;29;20031;-68
2021/05/02 06:42:39;;;;;;;22.17;8.18;;;;;;;24.76;61.16;96364.78;4926593;29;20049;-69
2021/05/02 06:45:05;;;;;;;21.33;8.18;;;;;;;24.85;59.97;96342.06;4924857;29;20453;-69
2021/05/02 06:47:31;;;;;;;21.42;9.15;;;;;;;25.37;58.45;96365.38;4926046;29;20028;-69
2021/05/02 06:49:56;;;;;;;47.10;24.13;;;;;;;25.53;57.21;96370.63;4926375;29;20043;-69
2021/05/02 06:52:22;;;;;;;21.65;8.05;;;;;;;25.55;56.06;96319.84;4925544;29;20427;-68
2021/05/02 06:54:48;;;;;;;22.05;7.75;;;;;;;25.12;56.81;96282.38;4926165;29;20129;-69
2021/05/02 06:57:13;;;;;;;22.00;8.93;;;;;;;25.35;57.28;96339.56;4925716;29;20028;-69
2021/05/02 06:59:39;;;;;;;19.45;8.35;;;;;;;25.65;57.09;96369.56;4924963;29;20129;-70
2021/05/02 07:02:04;;;;;;;23.05;7.75;;;;;;;25.29;56.28;96331.69;4923798;29;20427;-70
2021/05/02 07:04:34;;;;;;;21.80;8.93;;;;;;;25.52;56.83;96366.19;4926226;29;20051;-70
2021/05/02 07:07:00;;;;;;;22.25;8.50;;;;;;;25.69;55.69;96358.81;4923934;29;20062;-68
2021/05/02 07:09:26;;;;;;;25.58;8.30;;;;;;;25.97;54.58;96351.59;4924801;29;20138;-69
2021/05/02 07:11:51;;;;;;;20.10;7.60;;;;;;;26.03;54.33;96355.34;4925633;29;20039;-69
2021/05/02 07:14:17;;;;;;;17.92;7.55;;;;;;;25.32;55.89;96313.69;4926539;29;20051;-68
2021/05/02 07:16:42;;;;;;;22.42;8.70;;;;;;;25.23;57.58;96367.66;4925959;29;20040;-68
2021/05/02 07:19:08;;;;;;;21.73;8.23;;;;;;;24.66;58.15;96312.28;4924528;29;20039;-68
2021/05/02 07:21:33;;;;;;;19.45;7.45;;;;;;;25.11;58.00;96371.53;4925764;29;20730;-67
2021/05/02 07:23:59;;;;;;;20.88;7.78;;;;;;;24.33;60.96;96351.09;4926416;29;20407;-68
2021/05/02 07:26:24;;;;;;;23.98;8.25;;;;;;;23.77;60.93;96246.25;4925800;29;20507;-68
2021/05/02 07:28:50;;;;;;;21.85;8.45;;;;;;;24.63;58.75;96330.19;4926288;29;20132;-68
2021/05/02 07:31:16;;;;;;;17.67;7.10;;;;;;;25.22;57.78;96388.78;4923919;29;20126;-68
2021/05/02 07:33:42;;;;;;;21.63;8.40;;;;;;;24.77;55.67;96301.19;4925822;29;20087;-67
2021/05/02 07:36:09;;;;;;;24.25;8.07;;;;;;;25.70;54.31;96388.75;4924641;29;20094;-67
2021/05/02 07:38:35;;;;;;;23.52;8.35;;;;;;;25.73;53.16;96388.56;4926235;29;20036;-68
2021/05/02 07:41:02;;;;;;;18.77;7.45;;;;;;;25.78;53.57;96378.59;4925215;29;20103;-70
2021/05/02 07:43:28;;;;;;;20.23;6.60;;;;;;;26.06;53.37;96394.13;4939839;29;20042;-70
2021/05/02 07:45:53;;;;;;;18.30;6.93;;;;;;;25.92;52.18;96361.59;4925697;29;20036;-68
2021/05/02 07:48:19;;;;;;;21.08;7.07;;;;;;;26.02;50.12;96336.75;4925445;29;20114;-70
2021/05/02 07:50:44;;;;;;;22.00;7.60;;;;;;;26.14;50.63;96361.22;4939357;29;20031;-71
2021/05/02 07:53:10;;;;;;;21.88;7.65;;;;;;;26.09;49.85;96359.06;4922475;29;20055;-71
2021/05/02 07:55:36;;;;;;;17.75;7.28;;;;;;;24.83;51.16;96258.81;4924448;29;20098;-71
2021/05/02 07:58:02;;;;;;;26.67;6.82;;;;;;;25.62;51.06;96353.50;4924960;29;20031;-71
2021/05/02 08:00:28;;;;;;;23.20;7.22;;;;;;;25.99;49.62;96343.38;4924189;29;20042;-70
2021/05/02 08:02:53;;;;;;;21.60;6.78;;;;;;;26.24;49.66;96354.19;4924661;29;20035;-70
2021/05/02 08:05:19;;;;;;;19.17;8.10;;;;;;;26.22;49.85;96294.25;4938653;29;20047;-70
2021/05/02 08:07:44;;;;;;;19.88;6.75;;;;;;;25.82;52.52;96351.59;4924791;29;20040;-71
2021/05/02 08:10:11;;;;;;;26.98;7.22;;;;;;;25.87;51.65;96330.25;4924369;29;20051;-70
2021/05/02 08:12:37;;;;;;;24.08;6.50;;;;;;;25.76;51.97;96290.31;4924975;29;20083;-71
2021/05/02 08:15:04;;;;;;;17.05;7.25;;;;;;;26.23;49.97;96273.88;4927449;29;20051;-70
2021/05/02 08:17:29;;;;;;;19.17;6.63;;;;;;;26.30;49.11;96330.25;4925322;29;20064;-71
2021/05/02 08:19:55;;;;;;;14.90;6.22;;;;;;;25.72;51.03;96244.34;4928022;29;20032;-71
2021/05/02 08:22:20;;;;;;;17.80;7.65;;;;;;;26.01;49.23;96261.38;4927238;29;20043;-70
2021/05/02 08:24:46;;;;;;;18.00;6.35;;;;;;;25.65;50.29;96324.16;4927408;29;20036;-69
2021/05/02 08:27:12;;;;;;;18.25;7.90;;;;;;;26.11;50.20;96311.09;4927153;29;20496;-70
2021/05/02 08:29:37;;;;;;;21.13;7.93;;;;;;;26.98;47.60;96310.94;4929664;29;20471;-70
2021/05/02 08:32:03;;;;;;;21.83;8.30;;;;;;;27.31;46.18;96265.88;4928584;29;20040;-71
2021/05/02 08:34:29;;;;;;;20.45;7.53;;;;;;;27.46;45.16;96311.28;4943184;29;20139;-70
2021/05/02 08:36:54;;;;;;;21.50;7.10;;;;;;;26.27;46.75;96194.94;4928573;29;20027;-71
2021/05/02 08:39:20;;;;;;;19.90;8.07;;;;;;;26.37;47.43;96246.72;4927656;29;20519;-71
2021/05/02 08:41:45;;;;;;;23.23;6.68;;;;;;;26.91;47.24;96271.53;4929065;29;20050;-71
2021/05/02 08:44:11;;;;;;;22.90;7.55;;;;;;;27.30;46.26;96287.06;4928428;29;20067;-68
2021/05/02 08:46:38;;;;;;;18.42;7.43;;;;;;;28.20;45.60;96323.75;4926470;29;20035;-70
2021/05/02 08:49:06;;;;;;;18.27;8.00;;;;;;;28.56;44.30;96328.75;4928578;29;20044;-70
2021/05/02 08:51:32;;;;;;;21.75;7.82;;;;;;;28.74;43.95;96328.38;4926427;29;20051;-71
2021/05/02 08:53:58;;;;;;;22.77;8.15;;;;;;;28.56;43.24;96289.63;4928094;29;20618;-70
2021/05/02 08:56:24;;;;;;;18.50;7.03;;;;;;;28.74;42.92;96277.06;4926693;29;20039;-71
2021/05/02 08:58:50;;;;;;;20.10;8.45;;;;;;;28.97;44.10;96330.06;4928495;29;20646;-71
2021/05/02 09:01:26;;;;;;;26.58;10.50;;;;;;;29.70;42.78;96329.97;4927820;29;20083;-70
2021/05/02 09:03:51;;;;;;;23.40;7.90;;;;;;;29.39;41.61;96267.25;4926737;29;20496;-71
2021/05/02 09:06:20;;;;;;;18.02;7.35;;;;;;;30.18;41.66;96333.44;4926308;29;20046;-69
2021/05/02 09:08:47;;;;;;;18.80;7.30;;;;;;;29.73;40.78;96197.56;4928033;29;20047;-70
2021/05/02 09:11:15;;;;;;;20.15;8.15;;;;;;;30.29;39.99;96276.31;4926535;29;20280;-70
2021/05/02 09:13:50;;;;;;;20.05;7.78;;;;;;;30.45;41.13;96344.13;4928506;29;20095;-71
2021/05/02 09:16:16;;;;;;;16.90;7.43;;;;;;;30.50;40.83;96346.22;4927903;29;20250;-69
2021/05/02 09:18:50;;;;;;;25.05;7.97;;;;;;;30.17;42.25;96391.09;4928396;29;20112;-70
2021/05/02 09:21:27;;;;;;;26.45;7.88;;;;;;;29.36;42.47;96243.41;4926079;29;20048;-71
2021/05/02 09:23:56;;;;;;;19.83;6.25;;;;;;;29.71;42.90;96331.50;4928003;29;20050;-71
2021/05/02 09:26:26;;;;;;;21.38;7.32;;;;;;;29.76;43.58;96345.03;4927396;29;20484;-70
2021/05/02 09:28:55;;;;;;;18.02;7.28;;;;;;;29.54;44.31;96353.47;4928154;29;20039;-69
2021/05/02 09:31:23;;;;;;;15.05;6.32;;;;;;;29.46;43.67;96349.56;4926139;29;20107;-70
2021/05/02 09:33:50;;;;;;;23.00;7.63;;;;;;;29.19;44.10;96347.34;4926311;29;20039;-70
2021/05/02 09:36:18;;;;;;;18.30;6.93;;;;;;;29.29;44.55;96334.44;4927360;29;20050;-71
2021/05/02 09:38:44;;;;;;;19.05;7.32;;;;;;;29.52;43.97;96338.94;4928265;29;20089;-71
2021/05/02 09:41:12;;;;;;;18.77;7.13;;;;;;;29.07;45.10;96300.84;4927212;29;20046;-71
2021/05/02 09:43:45;;;;;;;28.38;7.85;;;;;;;29.25;46.07;96316.75;4928028;29;20396;-71
2021/05/02 09:46:28;;;;;;;21.97;8.03;;;;;;;29.27;46.39;96337.00;4927117;29;20050;-71
2021/05/02 09:49:00;;;;;;;22.98;7.35;;;;;;;29.51;45.95;96323.13;4928168;29;20091;-71
2021/05/02 09:51:28;;;;;;;17.92;7.60;;;;;;;29.66;45.70;96312.28;4927526;29;20094;-71
2021/05/02 09:54:07;;;;;;;17.08;7.30;;;;;;;29.50;45.92;96321.53;4927381;29;20058;-70
2021/05/02 09:56:40;;;;;;;19.23;7.18;;;;;;;29.80;45.24;96321.94;4927185;29;20044;-70
2021/05/02 09:59:29;;;;;;;20.40;7.47;;;;;;;29.64;45.12;96274.09;4927719;29;20039;-71
2021/05/02 10:02:13;;;;;;;19.17;7.38;;;;;;;30.08;45.27;96317.81;4927088;29;20468;-70
2021/05/02 10:04:56;;;;;;;22.50;8.32;;;;;;;30.15;45.54;96314.47;4925683;29;20039;-70
2021/05/02 10:07:28;;;;;;;23.08;8.32;;;;;;;30.17;45.70;96311.88;4927222;29;20483;-71
2021/05/02 10:09:54;;;;;;;20.85;7.88;;;;;;;30.17;45.89;96303.31;4927793;29;20098;-71
2021/05/02 10:12:20;;;;;;;13.45;7.18;;;;;;;29.72;45.56;96200.94;4926979;29;20035;-71
2021/05/02 10:14:48;;;;;;;21.67;7.30;;;;;;;29.30;45.22;96113.41;4925833;29;20035;-71
2021/05/02 10:17:14;;;;;;;22.45;7.68;;;;;;;30.95;45.21;96295.50;4926912;29;20151;-71
2021/05/02 10:19:40;;;;;;;13.45;7.15;;;;;;;30.70;43.91;96234.41;4927658;29;20094;-72
2021/05/02 10:22:06;;;;;;;23.65;7.35;;;;;;;30.78;43.45;96195.41;4924937;29;20089;-72
2021/05/02 10:24:32;;;;;;;18.42;8.48;;;;;;;30.39;44.86;96186.13;4927553;29;20091;-72
2021/05/02 10:26:59;;;;;;;21.45;7.80;;;;;;;31.04;44.21;96237.19;4926766;29;20422;-71
2021/05/02 10:29:27;;;;;;;22.60;7.90;;;;;;;30.77;43.69;96159.56;4926698;29;20046;-71
2021/05/02 10:32:09;;;;;;;22.20;8.52;;;;;;;31.17;43.71;96228.84;4926250;29;20987;-72
2021/05/02 10:34:41;;;;;;;21.42;9.80;;;;;;;31.51;44.23;96248.22;4926710;29;20047;-70
2021/05/02 10:37:25;;;;;;;24.50;7.80;;;;;;;31.45;43.63;96255.28;4939997;28;20810;-71
2021/05/02 10:40:05;;;;;;;16.33;6.97;;;;;;;30.79;43.83;96156.91;4925138;29;20054;-71
2021/05/02 10:42:46;;;;;;;16.23;7.28;;;;;;;30.95;42.78;96244.78;4926728;29;20143;-71
2021/05/02 10:45:30;;;;;;;21.45;8.63;;;;;;;30.69;45.42;96244.31;4926645;29;20035;-71
2021/05/02 10:48:00;;;;;;;21.15;7.35;;;;;;;30.50;45.52;96243.28;4926288;29;20396;-73
2021/05/02 10:50:35;;;;;;;18.88;7.70;;;;;;;30.46;44.73;96239.91;4939640;29;20555;-71
2021/05/02 10:53:04;;;;;;;22.40;7.70;;;;;;;30.35;45.30;96242.78;4924517;29;20814;-71
2021/05/02 10:55:57;;;;;;;19.40;7.45;;;;;;;30.82;44.92;96238.84;4926242;29;20073;-70
2021/05/02 10:58:29;;;;;;;20.98;7.28;;;;;;;30.63;43.28;96232.09;4924785;29;20052;-70
2021/05/02 11:00:59;;;;;;;16.60;6.55;;;;;;;30.50;35.20;96203.28;4924914;29;20502;-70
2021/05/02 11:03:39;;;;;;;22.58;6.90;;;;;;;31.11;33.46;96230.94;4926208;29;20050;-71
2021/05/02 11:06:13;;;;;;;17.92;6.50;;;;;;;31.27;32.26;96218.66;4926033;29;20035;-70
2021/05/02 11:08:45;;;;;;;21.02;6.75;;;;;;;31.37;30.18;96232.16;4926747;29;20134;-70
2021/05/02 11:11:32;;;;;;;19.02;6.35;;;;;;;31.49;31.33;96225.03;4926057;29;20412;-70
2021/05/02 11:14:18;;;;;;;16.42;5.97;;;;;;;31.62;30.36;96235.91;4924787;29;20504;-69
2021/05/02 11:16:47;;;;;;;20.67;5.95;;;;;;;31.44;29.16;96233.69;4925481;29;20411;-69
2021/05/02 11:19:34;;;;;;;16.05;5.78;;;;;;;31.22;29.13;96188.72;4926959;29;20054;-68
2021/05/02 11:22:03;;;;;;;18.33;6.45;;;;;;;31.71;28.29;96229.88;4925636;29;20027;-68
2021/05/02 11:24:38;;;;;;;18.45;5.20;;;;;;;31.75;28.34;96233.22;4924791;29;20146;-69
2021/05/02 11:27:07;;;;;;;23.90;6.28;;;;;;;31.50;28.85;96202.94;4924145;29;20106;-68
2021/05/02 11:32:07;;;;;;;21.77;6.55;;;;;;;31.24;28.18;96139.53;4925753;29;20510;-69